sensor_id;sensor_type;location;lat;lon;timestamp;P1;durP1;ratioP1;P2;durP2;ratioP2
32445;SDS011;18899;50.748;7.102;2022-10-31T00:01:32;16.55;;;5.82;;
32445;SDS011;18899;50.748;7.102;2022-10-31T00:04:00;13.60;;;5.43;;
32445;SDS011;18899;50.748;7.102;2022-10-31T00:06:25;9.70;;;4.88;;
32445;SDS011;18899;50.748;7.102;2022-10-31T00:08:56;12.95;;;5.32;;
32445;SDS011;18899;50.748;7.102;2022-10-31T00:11:23;12.48;;;5.75;;
32445;SDS011;18899;50.748;7.102;2022-10-31T00:13:49;14.15;;;5.63;;
32445;SDS011;18899;50.748;7.102;2022-10-31T00:16:16;15.95;;;5.55;;
32445;SDS011;18899;50.748;7.102;2022-10-31T00:18:43;14.88;;;5.75;;
32445;SDS011;18899;50.748;7.102;2022-10-31T00:21:08;19.27;;;5.25;;
32445;SDS011;18899;50.748;7.102;2022-10-31T00:23:35;10.65;;;5.65;;
32445;SDS011;18899;50.748;7.102;2022-10-31T00:26:02;19.80;;;5.95;;
32445;SDS011;18899;50.748;7.102;2022-10-31T00:28:28;15.70;;;6.05;;
32445;SDS011;18899;50.748;7.102;2022-10-31T00:30:57;18.23;;;6.47;;
32445;SDS011;18899;50.748;7.102;2022-10-31T00:33:24;10.27;;;5.10;;
32445;SDS011;18899;50.748;7.102;2022-10-31T00:35:50;10.63;;;5.05;;
32445;SDS011;18899;50.748;7.102;2022-10-31T00:38:15;16.30;;;5.82;;
32445;SDS011;18899;50.748;7.102;2022-10-31T00:40:41;11.55;;;5.68;;
32445;SDS011;18899;50.748;7.102;2022-10-31T00:43:07;12.50;;;5.18;;
32445;SDS011;18899;50.748;7.102;2022-10-31T00:45:33;12.73;;;5.30;;
32445;SDS011;18899;50.748;7.102;2022-10-31T00:47:59;12.95;;;6.10;;
32445;SDS011;18899;50.748;7.102;2022-10-31T00:50:24;11.77;;;5.63;;
32445;SDS011;18899;50.748;7.102;2022-10-31T00:52:50;13.23;;;5.38;;
32445;SDS011;18899;50.748;7.102;2022-10-31T00:55:15;11.68;;;5.25;;
32445;SDS011;18899;50.748;7.102;2022-10-31T00:57:41;13.55;;;5.78;;
32445;SDS011;18899;50.748;7.102;2022-10-31T01:00:07;10.82;;;4.95;;
32445;SDS011;18899;50.748;7.102;2022-10-31T01:02:33;12.93;;;5.63;;
32445;SDS011;18899;50.748;7.102;2022-10-31T01:04:58;12.57;;;5.50;;
32445;SDS011;18899;50.748;7.102;2022-10-31T01:07:24;14.95;;;5.88;;
32445;SDS011;18899;50.748;7.102;2022-10-31T01:09:49;11.15;;;5.53;;
32445;SDS011;18899;50.748;7.102;2022-10-31T01:12:15;14.50;;;6.22;;
32445;SDS011;18899;50.748;7.102;2022-10-31T01:14:44;15.93;;;5.18;;
32445;SDS011;18899;50.748;7.102;2022-10-31T01:17:10;10.25;;;5.30;;
32445;SDS011;18899;50.748;7.102;2022-10-31T01:19:36;15.15;;;5.25;;
32445;SDS011;18899;50.748;7.102;2022-10-31T01:22:02;11.20;;;5.28;;
32445;SDS011;18899;50.748;7.102;2022-10-31T01:24:29;14.00;;;5.55;;
32445;SDS011;18899;50.748;7.102;2022-10-31T01:26:55;16.92;;;4.85;;
32445;SDS011;18899;50.748;7.102;2022-10-31T01:29:20;10.05;;;4.60;;
32445;SDS011;18899;50.748;7.102;2022-10-31T01:31:46;9.23;;;4.43;;
32445;SDS011;18899;50.748;7.102;2022-10-31T01:34:14;12.57;;;4.50;;
32445;SDS011;18899;50.748;7.102;2022-10-31T01:36:41;10.75;;;5.40;;
32445;SDS011;18899;50.748;7.102;2022-10-31T01:39:09;9.30;;;4.78;;
32445;SDS011;18899;50.748;7.102;2022-10-31T01:41:47;10.35;;;5.15;;
32445;SDS011;18899;50.748;7.102;2022-10-31T01:49:13;15.82;;;5.43;;
32445;SDS011;18899;50.748;7.102;2022-10-31T01:54:34;17.85;;;5.57;;
32445;SDS011;18899;50.748;7.102;2022-10-31T01:57:03;17.02;;;5.65;;
32445;SDS011;18899;50.748;7.102;2022-10-31T01:59:30;18.58;;;7.50;;
32445;SDS011;18899;50.748;7.102;2022-10-31T02:02:01;13.68;;;5.65;;
32445;SDS011;18899;50.748;7.102;2022-10-31T02:04:27;16.88;;;6.20;;
32445;SDS011;18899;50.748;7.102;2022-10-31T02:06:55;12.45;;;5.55;;
32445;SDS011;18899;50.748;7.102;2022-10-31T02:09:25;14.93;;;5.50;;
32445;SDS011;18899;50.748;7.102;2022-10-31T02:11:52;13.82;;;5.93;;
32445;SDS011;18899;50.748;7.102;2022-10-31T02:14:24;10.77;;;5.50;;
32445;SDS011;18899;50.748;7.102;2022-10-31T02:16:55;15.90;;;7.32;;
32445;SDS011;18899;50.748;7.102;2022-10-31T02:19:28;19.70;;;6.55;;
32445;SDS011;18899;50.748;7.102;2022-10-31T02:22:17;16.05;;;6.20;;
32445;SDS011;18899;50.748;7.102;2022-10-31T02:25:03;20.08;;;6.65;;
32445;SDS011;18899;50.748;7.102;2022-10-31T02:31:24;11.40;;;5.68;;
32445;SDS011;18899;50.748;7.102;2022-10-31T02:33:57;15.55;;;5.57;;
32445;SDS011;18899;50.748;7.102;2022-10-31T02:36:35;9.82;;;5.30;;
32445;SDS011;18899;50.748;7.102;2022-10-31T02:39:12;12.23;;;5.47;;
32445;SDS011;18899;50.748;7.102;2022-10-31T02:47:33;16.88;;;5.35;;
32445;SDS011;18899;50.748;7.102;2022-10-31T02:50:08;10.93;;;5.15;;
32445;SDS011;18899;50.748;7.102;2022-10-31T02:52:42;13.70;;;5.35;;
32445;SDS011;18899;50.748;7.102;2022-10-31T02:57:57;14.80;;;4.90;;
32445;SDS011;18899;50.748;7.102;2022-10-31T03:00:36;12.07;;;4.80;;
32445;SDS011;18899;50.748;7.102;2022-10-31T03:06:05;17.98;;;5.63;;
32445;SDS011;18899;50.748;7.102;2022-10-31T03:08:46;11.55;;;5.38;;
32445;SDS011;18899;50.748;7.102;2022-10-31T03:11:46;15.57;;;6.13;;
32445;SDS011;18899;50.748;7.102;2022-10-31T03:14:35;10.77;;;5.45;;
32445;SDS011;18899;50.748;7.102;2022-10-31T03:17:07;13.13;;;5.47;;
32445;SDS011;18899;50.748;7.102;2022-10-31T03:19:41;13.65;;;6.90;;
32445;SDS011;18899;50.748;7.102;2022-10-31T03:22:17;18.98;;;6.13;;
32445;SDS011;18899;50.748;7.102;2022-10-31T03:24:46;8.95;;;4.85;;
32445;SDS011;18899;50.748;7.102;2022-10-31T03:27:14;12.45;;;5.25;;
32445;SDS011;18899;50.748;7.102;2022-10-31T03:29:43;9.73;;;4.95;;
32445;SDS011;18899;50.748;7.102;2022-10-31T03:32:19;16.27;;;5.63;;
32445;SDS011;18899;50.748;7.102;2022-10-31T03:34:54;10.68;;;5.10;;
32445;SDS011;18899;50.748;7.102;2022-10-31T03:37:24;12.57;;;5.68;;
32445;SDS011;18899;50.748;7.102;2022-10-31T03:39:55;12.43;;;6.53;;
32445;SDS011;18899;50.748;7.102;2022-10-31T03:42:24;15.98;;;5.88;;
32445;SDS011;18899;50.748;7.102;2022-10-31T03:44:57;14.48;;;6.30;;
32445;SDS011;18899;50.748;7.102;2022-10-31T03:47:29;18.73;;;6.10;;
32445;SDS011;18899;50.748;7.102;2022-10-31T03:49:55;15.35;;;6.07;;
32445;SDS011;18899;50.748;7.102;2022-10-31T03:52:24;11.43;;;5.60;;
32445;SDS011;18899;50.748;7.102;2022-10-31T03:54:59;12.15;;;5.40;;
32445;SDS011;18899;50.748;7.102;2022-10-31T03:58:03;12.43;;;5.85;;
32445;SDS011;18899;50.748;7.102;2022-10-31T04:00:32;12.00;;;5.53;;
32445;SDS011;18899;50.748;7.102;2022-10-31T04:03:00;10.60;;;5.40;;
32445;SDS011;18899;50.748;7.102;2022-10-31T04:05:30;16.23;;;5.72;;
32445;SDS011;18899;50.748;7.102;2022-10-31T04:07:57;11.13;;;5.45;;
32445;SDS011;18899;50.748;7.102;2022-10-31T04:10:25;13.35;;;6.07;;
32445;SDS011;18899;50.748;7.102;2022-10-31T04:12:54;14.30;;;5.60;;
32445;SDS011;18899;50.748;7.102;2022-10-31T04:15:24;12.85;;;6.40;;
32445;SDS011;18899;50.748;7.102;2022-10-31T04:17:53;12.82;;;5.78;;
32445;SDS011;18899;50.748;7.102;2022-10-31T04:20:29;13.82;;;6.15;;
32445;SDS011;18899;50.748;7.102;2022-10-31T04:22:57;10.30;;;6.07;;
32445;SDS011;18899;50.748;7.102;2022-10-31T04:25:23;18.40;;;6.30;;
32445;SDS011;18899;50.748;7.102;2022-10-31T04:27:49;14.23;;;6.28;;
32445;SDS011;18899;50.748;7.102;2022-10-31T04:30:14;16.80;;;6.90;;
32445;SDS011;18899;50.748;7.102;2022-10-31T04:32:40;14.23;;;5.47;;
32445;SDS011;18899;50.748;7.102;2022-10-31T04:35:06;13.95;;;5.60;;
32445;SDS011;18899;50.748;7.102;2022-10-31T04:37:31;11.82;;;5.78;;
32445;SDS011;18899;50.748;7.102;2022-10-31T04:39:57;11.95;;;5.53;;
32445;SDS011;18899;50.748;7.102;2022-10-31T04:42:22;13.45;;;5.25;;
32445;SDS011;18899;50.748;7.102;2022-10-31T04:44:48;11.63;;;5.53;;
32445;SDS011;18899;50.748;7.102;2022-10-31T04:47:13;13.73;;;5.57;;
32445;SDS011;18899;50.748;7.102;2022-10-31T04:49:39;15.90;;;6.00;;
32445;SDS011;18899;50.748;7.102;2022-10-31T04:52:04;12.13;;;4.97;;
32445;SDS011;18899;50.748;7.102;2022-10-31T04:54:30;14.82;;;6.03;;
32445;SDS011;18899;50.748;7.102;2022-10-31T04:56:56;14.52;;;5.65;;
32445;SDS011;18899;50.748;7.102;2022-10-31T04:59:21;11.77;;;6.40;;
32445;SDS011;18899;50.748;7.102;2022-10-31T05:01:47;13.13;;;6.03;;
32445;SDS011;18899;50.748;7.102;2022-10-31T05:04:12;13.90;;;6.40;;
32445;SDS011;18899;50.748;7.102;2022-10-31T05:06:38;10.52;;;6.15;;
32445;SDS011;18899;50.748;7.102;2022-10-31T05:09:04;25.75;;;7.57;;
32445;SDS011;18899;50.748;7.102;2022-10-31T05:11:29;17.17;;;6.30;;
32445;SDS011;18899;50.748;7.102;2022-10-31T05:13:55;19.88;;;6.75;;
32445;SDS011;18899;50.748;7.102;2022-10-31T05:16:20;14.90;;;6.53;;
32445;SDS011;18899;50.748;7.102;2022-10-31T05:18:46;17.00;;;6.13;;
32445;SDS011;18899;50.748;7.102;2022-10-31T05:21:11;16.42;;;6.80;;
32445;SDS011;18899;50.748;7.102;2022-10-31T05:23:37;21.83;;;6.88;;
32445;SDS011;18899;50.748;7.102;2022-10-31T05:26:04;21.80;;;6.55;;
32445;SDS011;18899;50.748;7.102;2022-10-31T05:28:29;14.00;;;6.03;;
32445;SDS011;18899;50.748;7.102;2022-10-31T05:30:55;16.08;;;6.18;;
32445;SDS011;18899;50.748;7.102;2022-10-31T05:33:20;12.88;;;6.35;;
32445;SDS011;18899;50.748;7.102;2022-10-31T05:35:46;16.08;;;7.03;;
32445;SDS011;18899;50.748;7.102;2022-10-31T05:38:11;17.25;;;5.95;;
32445;SDS011;18899;50.748;7.102;2022-10-31T05:40:37;16.17;;;7.22;;
32445;SDS011;18899;50.748;7.102;2022-10-31T05:43:02;21.08;;;7.20;;
32445;SDS011;18899;50.748;7.102;2022-10-31T05:45:28;13.90;;;6.50;;
32445;SDS011;18899;50.748;7.102;2022-10-31T05:47:57;13.73;;;7.10;;
32445;SDS011;18899;50.748;7.102;2022-10-31T05:50:25;13.35;;;6.85;;
32445;SDS011;18899;50.748;7.102;2022-10-31T05:52:56;14.20;;;6.65;;
32445;SDS011;18899;50.748;7.102;2022-10-31T05:55:27;14.98;;;7.75;;
32445;SDS011;18899;50.748;7.102;2022-10-31T05:57:53;18.50;;;8.20;;
32445;SDS011;18899;50.748;7.102;2022-10-31T06:00:21;19.20;;;8.07;;
32445;SDS011;18899;50.748;7.102;2022-10-31T06:02:47;13.90;;;7.32;;
32445;SDS011;18899;50.748;7.102;2022-10-31T06:05:13;23.27;;;8.50;;
32445;SDS011;18899;50.748;7.102;2022-10-31T06:07:39;17.73;;;7.20;;
32445;SDS011;18899;50.748;7.102;2022-10-31T06:10:05;23.75;;;7.90;;
32445;SDS011;18899;50.748;7.102;2022-10-31T06:12:32;15.63;;;7.57;;
32445;SDS011;18899;50.748;7.102;2022-10-31T06:15:02;17.50;;;7.22;;
32445;SDS011;18899;50.748;7.102;2022-10-31T06:17:32;22.63;;;7.63;;
32445;SDS011;18899;50.748;7.102;2022-10-31T06:19:59;20.38;;;7.78;;
32445;SDS011;18899;50.748;7.102;2022-10-31T06:22:24;16.20;;;7.57;;
32445;SDS011;18899;50.748;7.102;2022-10-31T06:24:50;17.98;;;7.85;;
32445;SDS011;18899;50.748;7.102;2022-10-31T06:27:15;20.02;;;7.60;;
32445;SDS011;18899;50.748;7.102;2022-10-31T06:29:41;23.33;;;7.45;;
32445;SDS011;18899;50.748;7.102;2022-10-31T06:32:09;17.33;;;7.68;;
32445;SDS011;18899;50.748;7.102;2022-10-31T06:34:37;16.58;;;7.07;;
32445;SDS011;18899;50.748;7.102;2022-10-31T06:37:02;21.77;;;7.70;;
32445;SDS011;18899;50.748;7.102;2022-10-31T06:39:30;17.85;;;7.88;;
32445;SDS011;18899;50.748;7.102;2022-10-31T06:41:56;21.85;;;7.63;;
32445;SDS011;18899;50.748;7.102;2022-10-31T06:44:22;15.07;;;7.18;;
32445;SDS011;18899;50.748;7.102;2022-10-31T06:46:48;15.57;;;7.38;;
32445;SDS011;18899;50.748;7.102;2022-10-31T06:49:14;22.33;;;6.75;;
32445;SDS011;18899;50.748;7.102;2022-10-31T06:51:39;16.17;;;6.40;;
32445;SDS011;18899;50.748;7.102;2022-10-31T06:54:05;18.23;;;6.40;;
32445;SDS011;18899;50.748;7.102;2022-10-31T06:56:30;18.00;;;7.10;;
32445;SDS011;18899;50.748;7.102;2022-10-31T06:58:56;13.73;;;5.63;;
32445;SDS011;18899;50.748;7.102;2022-10-31T07:01:22;11.93;;;5.82;;
32445;SDS011;18899;50.748;7.102;2022-10-31T07:03:47;12.38;;;6.18;;
32445;SDS011;18899;50.748;7.102;2022-10-31T07:06:13;12.50;;;5.47;;
32445;SDS011;18899;50.748;7.102;2022-10-31T07:08:38;13.40;;;6.13;;
32445;SDS011;18899;50.748;7.102;2022-10-31T07:11:04;18.63;;;5.45;;
32445;SDS011;18899;50.748;7.102;2022-10-31T07:13:30;14.82;;;5.55;;
32445;SDS011;18899;50.748;7.102;2022-10-31T07:16:01;10.82;;;4.78;;
32445;SDS011;18899;50.748;7.102;2022-10-31T07:18:28;11.05;;;4.82;;
32445;SDS011;18899;50.748;7.102;2022-10-31T07:20:54;12.68;;;5.47;;
32445;SDS011;18899;50.748;7.102;2022-10-31T07:23:20;11.75;;;5.85;;
32445;SDS011;18899;50.748;7.102;2022-10-31T07:25:46;13.63;;;5.00;;
32445;SDS011;18899;50.748;7.102;2022-10-31T07:28:12;19.23;;;7.82;;
32445;SDS011;18899;50.748;7.102;2022-10-31T07:30:38;12.82;;;5.00;;
32445;SDS011;18899;50.748;7.102;2022-10-31T07:33:03;13.20;;;5.80;;
32445;SDS011;18899;50.748;7.102;2022-10-31T07:35:29;9.07;;;5.32;;
32445;SDS011;18899;50.748;7.102;2022-10-31T07:37:55;18.27;;;6.32;;
32445;SDS011;18899;50.748;7.102;2022-10-31T07:40:22;13.63;;;5.93;;
32445;SDS011;18899;50.748;7.102;2022-10-31T07:42:49;15.07;;;6.40;;
32445;SDS011;18899;50.748;7.102;2022-10-31T07:45:17;18.10;;;6.45;;
32445;SDS011;18899;50.748;7.102;2022-10-31T07:47:45;13.55;;;5.97;;
32445;SDS011;18899;50.748;7.102;2022-10-31T07:50:16;12.55;;;5.38;;
32445;SDS011;18899;50.748;7.102;2022-10-31T07:52:43;13.38;;;5.40;;
32445;SDS011;18899;50.748;7.102;2022-10-31T07:55:12;14.52;;;5.72;;
32445;SDS011;18899;50.748;7.102;2022-10-31T07:57:41;16.45;;;5.63;;
32445;SDS011;18899;50.748;7.102;2022-10-31T08:00:08;13.68;;;6.22;;
32445;SDS011;18899;50.748;7.102;2022-10-31T08:02:34;13.18;;;5.45;;
32445;SDS011;18899;50.748;7.102;2022-10-31T08:05:00;14.15;;;5.90;;
32445;SDS011;18899;50.748;7.102;2022-10-31T08:07:27;18.80;;;6.45;;
32445;SDS011;18899;50.748;7.102;2022-10-31T08:09:55;12.18;;;5.15;;
32445;SDS011;18899;50.748;7.102;2022-10-31T08:12:20;19.80;;;6.22;;
32445;SDS011;18899;50.748;7.102;2022-10-31T08:14:46;13.52;;;5.63;;
32445;SDS011;18899;50.748;7.102;2022-10-31T08:17:13;9.52;;;5.28;;
32445;SDS011;18899;50.748;7.102;2022-10-31T08:19:39;10.88;;;5.03;;
32445;SDS011;18899;50.748;7.102;2022-10-31T08:22:05;15.88;;;5.97;;
32445;SDS011;18899;50.748;7.102;2022-10-31T08:24:30;15.13;;;5.38;;
32445;SDS011;18899;50.748;7.102;2022-10-31T08:26:59;13.43;;;4.80;;
32445;SDS011;18899;50.748;7.102;2022-10-31T08:29:25;16.80;;;5.20;;
32445;SDS011;18899;50.748;7.102;2022-10-31T08:31:50;16.88;;;6.38;;
32445;SDS011;18899;50.748;7.102;2022-10-31T08:34:17;15.95;;;6.13;;
32445;SDS011;18899;50.748;7.102;2022-10-31T08:36:42;16.35;;;5.25;;
32445;SDS011;18899;50.748;7.102;2022-10-31T08:39:10;14.93;;;5.13;;
32445;SDS011;18899;50.748;7.102;2022-10-31T08:41:37;11.43;;;6.75;;
32445;SDS011;18899;50.748;7.102;2022-10-31T08:44:02;14.73;;;5.03;;
32445;SDS011;18899;50.748;7.102;2022-10-31T08:46:29;14.18;;;5.15;;
32445;SDS011;18899;50.748;7.102;2022-10-31T08:48:55;16.13;;;5.93;;
32445;SDS011;18899;50.748;7.102;2022-10-31T08:51:20;16.77;;;5.55;;
32445;SDS011;18899;50.748;7.102;2022-10-31T08:53:47;14.48;;;5.57;;
32445;SDS011;18899;50.748;7.102;2022-10-31T08:56:13;15.18;;;5.88;;
32445;SDS011;18899;50.748;7.102;2022-10-31T08:58:38;15.60;;;6.55;;
32445;SDS011;18899;50.748;7.102;2022-10-31T09:01:05;16.85;;;6.88;;
32445;SDS011;18899;50.748;7.102;2022-10-31T09:03:31;14.18;;;6.78;;
32445;SDS011;18899;50.748;7.102;2022-10-31T09:06:00;13.82;;;6.20;;
32445;SDS011;18899;50.748;7.102;2022-10-31T09:08:29;17.42;;;7.68;;
32445;SDS011;18899;50.748;7.102;2022-10-31T09:10:55;18.40;;;7.03;;
32445;SDS011;18899;50.748;7.102;2022-10-31T09:13:25;14.38;;;6.35;;
32445;SDS011;18899;50.748;7.102;2022-10-31T09:15:55;15.25;;;5.78;;
32445;SDS011;18899;50.748;7.102;2022-10-31T09:18:22;15.15;;;6.13;;
32445;SDS011;18899;50.748;7.102;2022-10-31T09:20:49;15.75;;;6.05;;
32445;SDS011;18899;50.748;7.102;2022-10-31T09:23:17;14.77;;;6.47;;
32445;SDS011;18899;50.748;7.102;2022-10-31T09:25:45;13.00;;;5.78;;
32445;SDS011;18899;50.748;7.102;2022-10-31T09:28:12;14.20;;;5.28;;
32445;SDS011;18899;50.748;7.102;2022-10-31T09:30:41;14.07;;;5.97;;
32445;SDS011;18899;50.748;7.102;2022-10-31T09:33:09;13.05;;;5.28;;
32445;SDS011;18899;50.748;7.102;2022-10-31T09:35:36;14.90;;;5.75;;
32445;SDS011;18899;50.748;7.102;2022-10-31T09:38:03;12.23;;;5.15;;
32445;SDS011;18899;50.748;7.102;2022-10-31T09:49:06;17.27;;;5.93;;
32445;SDS011;18899;50.748;7.102;2022-10-31T09:51:53;11.63;;;5.38;;
32445;SDS011;18899;50.748;7.102;2022-10-31T09:56:50;20.83;;;6.50;;
32445;SDS011;18899;50.748;7.102;2022-10-31T09:59:25;14.50;;;6.07;;
32445;SDS011;18899;50.748;7.102;2022-10-31T10:01:56;19.10;;;5.93;;
32445;SDS011;18899;50.748;7.102;2022-10-31T10:06:51;16.48;;;5.63;;
32445;SDS011;18899;50.748;7.102;2022-10-31T10:09:18;12.18;;;5.18;;
32445;SDS011;18899;50.748;7.102;2022-10-31T10:17:36;15.20;;;5.25;;
32445;SDS011;18899;50.748;7.102;2022-10-31T10:23:23;10.02;;;5.18;;
32445;SDS011;18899;50.748;7.102;2022-10-31T10:26:16;14.98;;;5.70;;
32445;SDS011;18899;50.748;7.102;2022-10-31T10:29:01;13.13;;;4.82;;
32445;SDS011;18899;50.748;7.102;2022-10-31T10:31:37;14.38;;;5.18;;
32445;SDS011;18899;50.748;7.102;2022-10-31T10:37:19;12.23;;;5.38;;
32445;SDS011;18899;50.748;7.102;2022-10-31T10:39:54;14.43;;;5.28;;
32445;SDS011;18899;50.748;7.102;2022-10-31T10:42:25;10.88;;;4.72;;
32445;SDS011;18899;50.748;7.102;2022-10-31T10:45:15;19.08;;;6.18;;
32445;SDS011;18899;50.748;7.102;2022-10-31T10:48:05;11.17;;;5.30;;
32445;SDS011;18899;50.748;7.102;2022-10-31T10:50:36;12.20;;;5.25;;
32445;SDS011;18899;50.748;7.102;2022-10-31T10:53:21;13.75;;;5.47;;
32445;SDS011;18899;50.748;7.102;2022-10-31T10:59:13;12.70;;;5.22;;
32445;SDS011;18899;50.748;7.102;2022-10-31T11:01:43;16.90;;;5.78;;
32445;SDS011;18899;50.748;7.102;2022-10-31T11:04:42;19.23;;;6.47;;
32445;SDS011;18899;50.748;7.102;2022-10-31T11:07:08;17.48;;;6.60;;
32445;SDS011;18899;50.748;7.102;2022-10-31T11:09:35;15.77;;;5.03;;
32445;SDS011;18899;50.748;7.102;2022-10-31T11:12:09;18.40;;;6.68;;
32445;SDS011;18899;50.748;7.102;2022-10-31T11:14:44;15.43;;;5.63;;
32445;SDS011;18899;50.748;7.102;2022-10-31T11:19:59;16.77;;;6.38;;
32445;SDS011;18899;50.748;7.102;2022-10-31T11:22:55;12.25;;;5.20;;
32445;SDS011;18899;50.748;7.102;2022-10-31T11:25:26;12.07;;;4.93;;
32445;SDS011;18899;50.748;7.102;2022-10-31T11:28:05;15.68;;;4.85;;
32445;SDS011;18899;50.748;7.102;2022-10-31T11:31:28;11.02;;;4.75;;
32445;SDS011;18899;50.748;7.102;2022-10-31T11:36:29;16.58;;;5.05;;
32445;SDS011;18899;50.748;7.102;2022-10-31T11:38:59;12.43;;;4.72;;
32445;SDS011;18899;50.748;7.102;2022-10-31T11:41:30;13.80;;;5.10;;
32445;SDS011;18899;50.748;7.102;2022-10-31T11:44:04;12.60;;;4.47;;
32445;SDS011;18899;50.748;7.102;2022-10-31T11:46:51;18.65;;;5.00;;
32445;SDS011;18899;50.748;7.102;2022-10-31T11:51:51;15.48;;;4.47;;
32445;SDS011;18899;50.748;7.102;2022-10-31T11:54:21;11.45;;;4.15;;
32445;SDS011;18899;50.748;7.102;2022-10-31T11:56:52;10.10;;;4.47;;
32445;SDS011;18899;50.748;7.102;2022-10-31T11:59:22;9.25;;;4.30;;
32445;SDS011;18899;50.748;7.102;2022-10-31T12:02:14;12.68;;;4.43;;
32445;SDS011;18899;50.748;7.102;2022-10-31T12:04:44;15.93;;;4.03;;
32445;SDS011;18899;50.748;7.102;2022-10-31T12:07:20;7.90;;;4.20;;
32445;SDS011;18899;50.748;7.102;2022-10-31T12:09:45;10.07;;;4.03;;
32445;SDS011;18899;50.748;7.102;2022-10-31T12:12:26;6.60;;;3.28;;
32445;SDS011;18899;50.748;7.102;2022-10-31T12:29:52;10.00;;;3.83;;
32445;SDS011;18899;50.748;7.102;2022-10-31T12:32:29;8.30;;;3.53;;
32445;SDS011;18899;50.748;7.102;2022-10-31T12:35:13;17.88;;;3.90;;
32445;SDS011;18899;50.748;7.102;2022-10-31T12:46:03;9.48;;;3.47;;
32445;SDS011;18899;50.748;7.102;2022-10-31T12:51:33;10.57;;;3.78;;
32445;SDS011;18899;50.748;7.102;2022-10-31T12:56:57;10.07;;;3.92;;
32445;SDS011;18899;50.748;7.102;2022-10-31T12:59:36;9.48;;;3.75;;
32445;SDS011;18899;50.748;7.102;2022-10-31T13:02:27;9.05;;;3.95;;
32445;SDS011;18899;50.748;7.102;2022-10-31T13:05:00;13.20;;;4.50;;
32445;SDS011;18899;50.748;7.102;2022-10-31T13:07:46;10.32;;;3.47;;
32445;SDS011;18899;50.748;7.102;2022-10-31T13:10:24;7.57;;;3.63;;
32445;SDS011;18899;50.748;7.102;2022-10-31T13:12:55;14.88;;;3.97;;
32445;SDS011;18899;50.748;7.102;2022-10-31T13:15:27;8.25;;;3.60;;
32445;SDS011;18899;50.748;7.102;2022-10-31T13:17:59;5.95;;;3.45;;
32445;SDS011;18899;50.748;7.102;2022-10-31T13:20:30;18.00;;;3.70;;
32445;SDS011;18899;50.748;7.102;2022-10-31T13:23:10;10.05;;;4.22;;
32445;SDS011;18899;50.748;7.102;2022-10-31T13:25:59;10.30;;;3.65;;
32445;SDS011;18899;50.748;7.102;2022-10-31T13:31:09;15.75;;;3.72;;
32445;SDS011;18899;50.748;7.102;2022-10-31T13:36:10;9.10;;;3.63;;
32445;SDS011;18899;50.748;7.102;2022-10-31T13:38:57;10.00;;;3.30;;
32445;SDS011;18899;50.748;7.102;2022-10-31T13:41:48;12.95;;;3.25;;
32445;SDS011;18899;50.748;7.102;2022-10-31T13:44:24;8.80;;;3.30;;
32445;SDS011;18899;50.748;7.102;2022-10-31T13:46:51;12.68;;;3.13;;
32445;SDS011;18899;50.748;7.102;2022-10-31T13:52:27;12.35;;;3.85;;
32445;SDS011;18899;50.748;7.102;2022-10-31T13:54:50;9.50;;;3.38;;
32445;SDS011;18899;50.748;7.102;2022-10-31T14:00:00;10.07;;;4.57;;
32445;SDS011;18899;50.748;7.102;2022-10-31T14:02:31;21.48;;;4.00;;
32445;SDS011;18899;50.748;7.102;2022-10-31T14:05:00;12.65;;;3.65;;
32445;SDS011;18899;50.748;7.102;2022-10-31T14:07:31;8.15;;;3.47;;
32445;SDS011;18899;50.748;7.102;2022-10-31T14:14:59;11.55;;;3.38;;
32445;SDS011;18899;50.748;7.102;2022-10-31T14:17:45;12.35;;;4.05;;
32445;SDS011;18899;50.748;7.102;2022-10-31T14:22:43;8.77;;;3.30;;
32445;SDS011;18899;50.748;7.102;2022-10-31T14:27:55;14.43;;;4.03;;
32445;SDS011;18899;50.748;7.102;2022-10-31T14:30:23;13.38;;;3.72;;
32445;SDS011;18899;50.748;7.102;2022-10-31T14:32:51;9.77;;;3.38;;
32445;SDS011;18899;50.748;7.102;2022-10-31T14:35:22;10.18;;;3.50;;
32445;SDS011;18899;50.748;7.102;2022-10-31T14:43:19;13.55;;;3.80;;
32445;SDS011;18899;50.748;7.102;2022-10-31T14:55:52;11.93;;;3.42;;
32445;SDS011;18899;50.748;7.102;2022-10-31T14:58:23;12.90;;;3.35;;
32445;SDS011;18899;50.748;7.102;2022-10-31T15:00:55;12.75;;;3.25;;
32445;SDS011;18899;50.748;7.102;2022-10-31T15:03:35;8.52;;;3.25;;
32445;SDS011;18899;50.748;7.102;2022-10-31T15:06:12;17.38;;;3.40;;
32445;SDS011;18899;50.748;7.102;2022-10-31T15:11:20;7.75;;;3.90;;
32445;SDS011;18899;50.748;7.102;2022-10-31T15:13:54;7.43;;;3.60;;
32445;SDS011;18899;50.748;7.102;2022-10-31T15:16:24;7.28;;;3.80;;
32445;SDS011;18899;50.748;7.102;2022-10-31T15:18:54;9.75;;;3.67;;
32445;SDS011;18899;50.748;7.102;2022-10-31T15:21:23;14.57;;;3.42;;
32445;SDS011;18899;50.748;7.102;2022-10-31T15:23:53;9.57;;;3.57;;
32445;SDS011;18899;50.748;7.102;2022-10-31T15:26:21;10.38;;;3.53;;
32445;SDS011;18899;50.748;7.102;2022-10-31T15:28:59;7.68;;;3.15;;
32445;SDS011;18899;50.748;7.102;2022-10-31T15:31:27;8.68;;;3.40;;
32445;SDS011;18899;50.748;7.102;2022-10-31T15:33:53;10.48;;;3.83;;
32445;SDS011;18899;50.748;7.102;2022-10-31T15:36:25;8.73;;;2.92;;
32445;SDS011;18899;50.748;7.102;2022-10-31T15:38:51;12.88;;;3.67;;
32445;SDS011;18899;50.748;7.102;2022-10-31T15:41:44;8.45;;;3.25;;
32445;SDS011;18899;50.748;7.102;2022-10-31T15:44:18;8.35;;;3.00;;
32445;SDS011;18899;50.748;7.102;2022-10-31T15:47:17;13.80;;;3.60;;
32445;SDS011;18899;50.748;7.102;2022-10-31T15:49:48;7.32;;;3.13;;
32445;SDS011;18899;50.748;7.102;2022-10-31T15:57:41;12.13;;;3.70;;
32445;SDS011;18899;50.748;7.102;2022-10-31T16:03:08;9.88;;;3.60;;
32445;SDS011;18899;50.748;7.102;2022-10-31T16:05:43;10.77;;;3.80;;
32445;SDS011;18899;50.748;7.102;2022-10-31T16:10:55;5.40;;;3.17;;
32445;SDS011;18899;50.748;7.102;2022-10-31T16:13:26;9.52;;;3.78;;
32445;SDS011;18899;50.748;7.102;2022-10-31T16:15:55;10.70;;;3.08;;
32445;SDS011;18899;50.748;7.102;2022-10-31T16:18:24;10.52;;;3.20;;
32445;SDS011;18899;50.748;7.102;2022-10-31T16:20:51;9.40;;;3.35;;
32445;SDS011;18899;50.748;7.102;2022-10-31T16:23:20;10.63;;;3.58;;
32445;SDS011;18899;50.748;7.102;2022-10-31T16:25:47;12.02;;;3.38;;
32445;SDS011;18899;50.748;7.102;2022-10-31T16:28:22;9.88;;;3.60;;
32445;SDS011;18899;50.748;7.102;2022-10-31T16:30:54;9.15;;;3.40;;
32445;SDS011;18899;50.748;7.102;2022-10-31T16:35:58;6.22;;;3.25;;
32445;SDS011;18899;50.748;7.102;2022-10-31T16:38:25;11.25;;;3.58;;
32445;SDS011;18899;50.748;7.102;2022-10-31T16:40:51;10.80;;;3.33;;
32445;SDS011;18899;50.748;7.102;2022-10-31T16:43:17;12.77;;;3.97;;
32445;SDS011;18899;50.748;7.102;2022-10-31T16:45:50;10.85;;;3.63;;
32445;SDS011;18899;50.748;7.102;2022-10-31T16:48:20;11.85;;;3.50;;
32445;SDS011;18899;50.748;7.102;2022-10-31T16:50:48;15.18;;;3.30;;
32445;SDS011;18899;50.748;7.102;2022-10-31T16:53:15;8.32;;;3.50;;
32445;SDS011;18899;50.748;7.102;2022-10-31T16:55:42;12.38;;;3.72;;
32445;SDS011;18899;50.748;7.102;2022-10-31T16:58:28;7.00;;;3.58;;
32445;SDS011;18899;50.748;7.102;2022-10-31T17:00:56;12.40;;;5.20;;
32445;SDS011;18899;50.748;7.102;2022-10-31T17:03:24;9.82;;;4.28;;
32445;SDS011;18899;50.748;7.102;2022-10-31T17:05:49;22.02;;;8.85;;
32445;SDS011;18899;50.748;7.102;2022-10-31T17:08:15;15.48;;;5.40;;
32445;SDS011;18899;50.748;7.102;2022-10-31T17:10:41;20.30;;;7.50;;
32445;SDS011;18899;50.748;7.102;2022-10-31T17:13:11;13.95;;;3.83;;
32445;SDS011;18899;50.748;7.102;2022-10-31T17:15:47;8.40;;;3.65;;